sensor_id;sensor_type;location;lat;lon;timestamp;temperature;humidity
25438;DHT22;13364;49.084;9.978;2023-07-09T00:01:29;22.60;55.00
25438;DHT22;13364;49.084;9.978;2023-07-09T00:07:30;22.50;55.60
25438;DHT22;13364;49.084;9.978;2023-07-09T00:09:57;22.50;55.20
25438;DHT22;13364;49.084;9.978;2023-07-09T00:12:25;22.50;55.70
25438;DHT22;13364;49.084;9.978;2023-07-09T00:14:52;22.40;55.60
25438;DHT22;13364;49.084;9.978;2023-07-09T00:17:28;22.40;55.20
25438;DHT22;13364;49.084;9.978;2023-07-09T00:19:56;22.40;55.80
25438;DHT22;13364;49.084;9.978;2023-07-09T00:22:23;22.30;55.50
25438;DHT22;13364;49.084;9.978;2023-07-09T00:24:50;22.30;55.80
25438;DHT22;13364;49.084;9.978;2023-07-09T00:27:20;22.30;56.00
25438;DHT22;13364;49.084;9.978;2023-07-09T00:29:48;22.30;56.50
25438;DHT22;13364;49.084;9.978;2023-07-09T00:32:18;22.30;56.70
25438;DHT22;13364;49.084;9.978;2023-07-09T00:34:48;22.30;56.50
25438;DHT22;13364;49.084;9.978;2023-07-09T00:37:17;22.30;56.20
25438;DHT22;13364;49.084;9.978;2023-07-09T00:39:45;22.30;56.60
25438;DHT22;13364;49.084;9.978;2023-07-09T00:42:14;22.30;56.60
25438;DHT22;13364;49.084;9.978;2023-07-09T00:44:55;22.30;56.50
25438;DHT22;13364;49.084;9.978;2023-07-09T00:47:25;22.20;56.50
25438;DHT22;13364;49.084;9.978;2023-07-09T00:50:06;22.10;56.90
25438;DHT22;13364;49.084;9.978;2023-07-09T00:52:57;22.10;56.90
25438;DHT22;13364;49.084;9.978;2023-07-09T00:55:30;22.00;56.70
25438;DHT22;13364;49.084;9.978;2023-07-09T00:58:02;22.00;57.30
25438;DHT22;13364;49.084;9.978;2023-07-09T01:00:37;22.00;57.40
25438;DHT22;13364;49.084;9.978;2023-07-09T01:03:21;22.10;57.20
25438;DHT22;13364;49.084;9.978;2023-07-09T01:05:49;22.10;57.70
25438;DHT22;13364;49.084;9.978;2023-07-09T01:08:19;22.10;57.50
25438;DHT22;13364;49.084;9.978;2023-07-09T01:10:47;22.00;58.00
25438;DHT22;13364;49.084;9.978;2023-07-09T01:13:16;22.00;58.00
25438;DHT22;13364;49.084;9.978;2023-07-09T01:15:46;22.00;58.10
25438;DHT22;13364;49.084;9.978;2023-07-09T01:18:14;21.90;57.60
25438;DHT22;13364;49.084;9.978;2023-07-09T01:20:41;21.80;57.70
25438;DHT22;13364;49.084;9.978;2023-07-09T01:23:09;21.80;57.50
25438;DHT22;13364;49.084;9.978;2023-07-09T01:25:43;21.70;57.70
25438;DHT22;13364;49.084;9.978;2023-07-09T01:28:10;21.70;58.30
25438;DHT22;13364;49.084;9.978;2023-07-09T01:30:40;21.70;58.00
25438;DHT22;13364;49.084;9.978;2023-07-09T01:33:07;21.70;58.20
25438;DHT22;13364;49.084;9.978;2023-07-09T01:35:38;21.70;58.40
25438;DHT22;13364;49.084;9.978;2023-07-09T01:38:09;21.70;58.20
25438;DHT22;13364;49.084;9.978;2023-07-09T01:40:36;21.70;58.50
25438;DHT22;13364;49.084;9.978;2023-07-09T01:43:06;21.70;58.40
25438;DHT22;13364;49.084;9.978;2023-07-09T01:45:35;21.80;59.10
25438;DHT22;13364;49.084;9.978;2023-07-09T01:48:04;21.80;59.10
25438;DHT22;13364;49.084;9.978;2023-07-09T01:50:31;21.80;59.20
25438;DHT22;13364;49.084;9.978;2023-07-09T01:52:59;21.80;59.10
25438;DHT22;13364;49.084;9.978;2023-07-09T01:55:27;21.90;59.00
25438;DHT22;13364;49.084;9.978;2023-07-09T01:57:57;21.80;58.90
25438;DHT22;13364;49.084;9.978;2023-07-09T02:00:24;21.80;59.00
25438;DHT22;13364;49.084;9.978;2023-07-09T02:02:51;21.70;59.30
25438;DHT22;13364;49.084;9.978;2023-07-09T02:05:20;21.60;59.60
25438;DHT22;13364;49.084;9.978;2023-07-09T02:07:48;21.60;59.70
25438;DHT22;13364;49.084;9.978;2023-07-09T02:10:16;21.60;59.70
25438;DHT22;13364;49.084;9.978;2023-07-09T02:12:45;21.60;59.80
25438;DHT22;13364;49.084;9.978;2023-07-09T02:15:13;21.60;59.80
25438;DHT22;13364;49.084;9.978;2023-07-09T02:17:40;21.60;59.70
25438;DHT22;13364;49.084;9.978;2023-07-09T02:20:09;21.60;59.60
25438;DHT22;13364;49.084;9.978;2023-07-09T02:22:38;21.60;59.70
25438;DHT22;13364;49.084;9.978;2023-07-09T02:25:06;21.60;59.90
25438;DHT22;13364;49.084;9.978;2023-07-09T02:27:36;21.60;59.90
25438;DHT22;13364;49.084;9.978;2023-07-09T02:30:05;21.70;60.00
25438;DHT22;13364;49.084;9.978;2023-07-09T02:32:33;21.70;60.00
25438;DHT22;13364;49.084;9.978;2023-07-09T02:35:00;21.80;59.90
25438;DHT22;13364;49.084;9.978;2023-07-09T02:37:27;21.80;59.80
25438;DHT22;13364;49.084;9.978;2023-07-09T02:39:54;21.80;60.00
25438;DHT22;13364;49.084;9.978;2023-07-09T02:42:23;21.80;59.90
25438;DHT22;13364;49.084;9.978;2023-07-09T02:44:50;21.90;59.70
25438;DHT22;13364;49.084;9.978;2023-07-09T02:47:18;21.90;59.30
25438;DHT22;13364;49.084;9.978;2023-07-09T02:49:46;21.90;59.40
25438;DHT22;13364;49.084;9.978;2023-07-09T02:52:14;21.90;59.60
25438;DHT22;13364;49.084;9.978;2023-07-09T02:54:41;21.80;59.80
25438;DHT22;13364;49.084;9.978;2023-07-09T02:57:08;21.80;60.50
25438;DHT22;13364;49.084;9.978;2023-07-09T02:59:35;21.80;60.30
25438;DHT22;13364;49.084;9.978;2023-07-09T03:02:03;21.90;60.20
25438;DHT22;13364;49.084;9.978;2023-07-09T03:04:31;21.80;60.10
25438;DHT22;13364;49.084;9.978;2023-07-09T03:06:58;21.70;60.20
25438;DHT22;13364;49.084;9.978;2023-07-09T03:09:27;21.50;60.70
25438;DHT22;13364;49.084;9.978;2023-07-09T03:11:55;21.30;61.00
25438;DHT22;13364;49.084;9.978;2023-07-09T03:14:22;21.20;61.50
25438;DHT22;13364;49.084;9.978;2023-07-09T03:16:49;21.00;61.90
25438;DHT22;13364;49.084;9.978;2023-07-09T03:19:17;20.90;62.30
25438;DHT22;13364;49.084;9.978;2023-07-09T03:21:44;20.90;62.40
25438;DHT22;13364;49.084;9.978;2023-07-09T03:24:11;20.90;62.50
25438;DHT22;13364;49.084;9.978;2023-07-09T03:26:41;20.80;62.70
25438;DHT22;13364;49.084;9.978;2023-07-09T03:29:09;20.70;63.20
25438;DHT22;13364;49.084;9.978;2023-07-09T03:31:36;20.50;63.80
25438;DHT22;13364;49.084;9.978;2023-07-09T03:34:04;20.40;64.50
25438;DHT22;13364;49.084;9.978;2023-07-09T03:36:31;20.40;64.30
25438;DHT22;13364;49.084;9.978;2023-07-09T03:38:58;20.40;63.60
25438;DHT22;13364;49.084;9.978;2023-07-09T03:41:25;20.40;64.80
25438;DHT22;13364;49.084;9.978;2023-07-09T03:43:52;20.50;64.90
25438;DHT22;13364;49.084;9.978;2023-07-09T03:46:20;20.50;65.00
25438;DHT22;13364;49.084;9.978;2023-07-09T03:48:47;20.60;64.90
25438;DHT22;13364;49.084;9.978;2023-07-09T03:51:17;20.70;64.70
25438;DHT22;13364;49.084;9.978;2023-07-09T03:53:44;20.70;64.60
25438;DHT22;13364;49.084;9.978;2023-07-09T03:56:11;20.70;64.80
25438;DHT22;13364;49.084;9.978;2023-07-09T03:58:38;20.70;65.10
25438;DHT22;13364;49.084;9.978;2023-07-09T04:01:06;20.70;65.10
25438;DHT22;13364;49.084;9.978;2023-07-09T04:03:34;20.70;65.40
25438;DHT22;13364;49.084;9.978;2023-07-09T04:06:01;20.70;65.50
25438;DHT22;13364;49.084;9.978;2023-07-09T04:08:29;20.70;65.70
25438;DHT22;13364;49.084;9.978;2023-07-09T04:10:59;20.70;65.80
25438;DHT22;13364;49.084;9.978;2023-07-09T04:13:26;20.80;65.70
25438;DHT22;13364;49.084;9.978;2023-07-09T04:15:55;20.90;65.80
25438;DHT22;13364;49.084;9.978;2023-07-09T04:18:23;21.00;65.70
25438;DHT22;13364;49.084;9.978;2023-07-09T04:20:50;21.00;65.70
25438;DHT22;13364;49.084;9.978;2023-07-09T04:23:19;21.00;65.20
25438;DHT22;13364;49.084;9.978;2023-07-09T04:25:46;21.00;65.20
25438;DHT22;13364;49.084;9.978;2023-07-09T04:28:14;20.90;65.30
25438;DHT22;13364;49.084;9.978;2023-07-09T04:30:48;20.80;65.40
25438;DHT22;13364;49.084;9.978;2023-07-09T04:33:17;20.70;65.40
25438;DHT22;13364;49.084;9.978;2023-07-09T04:35:45;20.60;65.90
25438;DHT22;13364;49.084;9.978;2023-07-09T04:38:13;20.50;66.50
25438;DHT22;13364;49.084;9.978;2023-07-09T04:40:40;20.40;67.00
25438;DHT22;13364;49.084;9.978;2023-07-09T04:43:07;20.50;67.70
25438;DHT22;13364;49.084;9.978;2023-07-09T04:45:35;20.60;68.00
25438;DHT22;13364;49.084;9.978;2023-07-09T04:48:03;20.70;67.60
25438;DHT22;13364;49.084;9.978;2023-07-09T04:50:30;20.90;67.30
25438;DHT22;13364;49.084;9.978;2023-07-09T04:52:58;21.20;66.80
25438;DHT22;13364;49.084;9.978;2023-07-09T04:55:26;21.40;65.90
25438;DHT22;13364;49.084;9.978;2023-07-09T04:57:53;21.60;66.90
25438;DHT22;13364;49.084;9.978;2023-07-09T05:00:20;21.70;66.50
25438;DHT22;13364;49.084;9.978;2023-07-09T05:02:47;21.80;66.70
25438;DHT22;13364;49.084;9.978;2023-07-09T05:05:15;21.90;66.40
25438;DHT22;13364;49.084;9.978;2023-07-09T05:07:42;22.00;65.60
25438;DHT22;13364;49.084;9.978;2023-07-09T05:10:10;22.10;65.20
25438;DHT22;13364;49.084;9.978;2023-07-09T05:12:47;22.20;65.10
25438;DHT22;13364;49.084;9.978;2023-07-09T05:15:15;22.30;64.60
25438;DHT22;13364;49.084;9.978;2023-07-09T05:17:42;22.40;63.40
25438;DHT22;13364;49.084;9.978;2023-07-09T05:20:09;22.40;63.00
25438;DHT22;13364;49.084;9.978;2023-07-09T05:22:37;22.30;63.00
25438;DHT22;13364;49.084;9.978;2023-07-09T05:25:33;22.20;62.70
25438;DHT22;13364;49.084;9.978;2023-07-09T05:28:00;22.10;62.80
25438;DHT22;13364;49.084;9.978;2023-07-09T05:30:27;22.00;63.20
25438;DHT22;13364;49.084;9.978;2023-07-09T05:32:54;21.90;64.60
25438;DHT22;13364;49.084;9.978;2023-07-09T05:35:25;22.00;65.10
25438;DHT22;13364;49.084;9.978;2023-07-09T05:37:53;22.00;65.60
25438;DHT22;13364;49.084;9.978;2023-07-09T05:40:21;22.00;65.50
25438;DHT22;13364;49.084;9.978;2023-07-09T05:42:48;22.10;65.50
25438;DHT22;13364;49.084;9.978;2023-07-09T05:45:16;22.30;65.10
25438;DHT22;13364;49.084;9.978;2023-07-09T05:47:43;22.40;64.60
25438;DHT22;13364;49.084;9.978;2023-07-09T05:50:10;22.50;64.70
25438;DHT22;13364;49.084;9.978;2023-07-09T05:52:37;22.50;64.90
25438;DHT22;13364;49.084;9.978;2023-07-09T05:55:04;22.60;64.40
25438;DHT22;13364;49.084;9.978;2023-07-09T05:57:32;22.70;64.20
25438;DHT22;13364;49.084;9.978;2023-07-09T05:59:59;22.80;63.80
25438;DHT22;13364;49.084;9.978;2023-07-09T06:02:26;22.90;63.80
25438;DHT22;13364;49.084;9.978;2023-07-09T06:04:54;23.00;63.80
25438;DHT22;13364;49.084;9.978;2023-07-09T06:07:21;23.10;63.70
25438;DHT22;13364;49.084;9.978;2023-07-09T06:09:48;23.30;63.20
25438;DHT22;13364;49.084;9.978;2023-07-09T06:12:15;23.50;63.20
25438;DHT22;13364;49.084;9.978;2023-07-09T06:14:44;23.80;63.20
25438;DHT22;13364;49.084;9.978;2023-07-09T06:17:11;24.00;62.40
25438;DHT22;13364;49.084;9.978;2023-07-09T06:19:39;24.20;61.40
25438;DHT22;13364;49.084;9.978;2023-07-09T06:22:06;24.40;60.70
25438;DHT22;13364;49.084;9.978;2023-07-09T06:24:33;24.60;63.40
25438;DHT22;13364;49.084;9.978;2023-07-09T06:27:00;24.70;63.20
25438;DHT22;13364;49.084;9.978;2023-07-09T06:29:27;24.80;62.40
25438;DHT22;13364;49.084;9.978;2023-07-09T06:31:54;25.00;60.30
25438;DHT22;13364;49.084;9.978;2023-07-09T06:34:21;25.10;59.70
25438;DHT22;13364;49.084;9.978;2023-07-09T06:36:48;25.20;61.20
25438;DHT22;13364;49.084;9.978;2023-07-09T06:39:18;25.30;61.60
25438;DHT22;13364;49.084;9.978;2023-07-09T06:41:46;25.40;61.50
25438;DHT22;13364;49.084;9.978;2023-07-09T06:44:32;25.50;61.50
25438;DHT22;13364;49.084;9.978;2023-07-09T06:46:59;25.60;61.10
25438;DHT22;13364;49.084;9.978;2023-07-09T06:49:27;25.70;60.90
25438;DHT22;13364;49.084;9.978;2023-07-09T06:51:55;25.80;60.10
25438;DHT22;13364;49.084;9.978;2023-07-09T06:54:22;25.90;58.70
25438;DHT22;13364;49.084;9.978;2023-07-09T06:56:49;26.00;58.00
25438;DHT22;13364;49.084;9.978;2023-07-09T06:59:16;26.10;57.90
25438;DHT22;13364;49.084;9.978;2023-07-09T07:01:43;26.10;57.70
25438;DHT22;13364;49.084;9.978;2023-07-09T07:04:10;26.20;57.70
25438;DHT22;13364;49.084;9.978;2023-07-09T07:06:37;26.30;57.50
25438;DHT22;13364;49.084;9.978;2023-07-09T07:09:04;26.40;57.10
25438;DHT22;13364;49.084;9.978;2023-07-09T07:11:31;26.50;56.80
25438;DHT22;13364;49.084;9.978;2023-07-09T07:13:58;26.60;56.10
25438;DHT22;13364;49.084;9.978;2023-07-09T07:16:25;26.70;55.80
25438;DHT22;13364;49.084;9.978;2023-07-09T07:18:53;26.80;55.70
25438;DHT22;13364;49.084;9.978;2023-07-09T07:21:20;26.90;55.20
25438;DHT22;13364;49.084;9.978;2023-07-09T07:23:47;27.00;54.20
25438;DHT22;13364;49.084;9.978;2023-07-09T07:26:15;27.10;53.60
25438;DHT22;13364;49.084;9.978;2023-07-09T07:28:43;27.20;53.30
25438;DHT22;13364;49.084;9.978;2023-07-09T07:31:11;27.30;53.30
25438;DHT22;13364;49.084;9.978;2023-07-09T07:33:42;27.40;52.70
25438;DHT22;13364;49.084;9.978;2023-07-09T07:36:10;27.50;52.80
25438;DHT22;13364;49.084;9.978;2023-07-09T07:38:40;27.70;52.80
25438;DHT22;13364;49.084;9.978;2023-07-09T07:41:08;27.80;51.60
25438;DHT22;13364;49.084;9.978;2023-07-09T07:43:35;27.90;50.10
25438;DHT22;13364;49.084;9.978;2023-07-09T07:46:02;27.90;49.40
25438;DHT22;13364;49.084;9.978;2023-07-09T07:48:30;28.00;49.30
25438;DHT22;13364;49.084;9.978;2023-07-09T07:51:04;28.10;49.30
25438;DHT22;13364;49.084;9.978;2023-07-09T07:53:31;28.20;49.80
25438;DHT22;13364;49.084;9.978;2023-07-09T07:55:58;28.40;49.10
25438;DHT22;13364;49.084;9.978;2023-07-09T07:58:26;28.50;48.20
25438;DHT22;13364;49.084;9.978;2023-07-09T08:00:57;28.60;47.50
25438;DHT22;13364;49.084;9.978;2023-07-09T08:03:25;28.80;46.90
25438;DHT22;13364;49.084;9.978;2023-07-09T08:05:52;29.00;46.90
25438;DHT22;13364;49.084;9.978;2023-07-09T08:08:19;29.30;46.80
25438;DHT22;13364;49.084;9.978;2023-07-09T08:10:49;29.50;46.20
25438;DHT22;13364;49.084;9.978;2023-07-09T08:13:18;29.80;45.70
25438;DHT22;13364;49.084;9.978;2023-07-09T08:15:46;30.00;44.10
25438;DHT22;13364;49.084;9.978;2023-07-09T08:18:13;30.10;43.70
25438;DHT22;13364;49.084;9.978;2023-07-09T08:20:43;30.20;43.70
25438;DHT22;13364;49.084;9.978;2023-07-09T08:23:11;30.30;42.70
25438;DHT22;13364;49.084;9.978;2023-07-09T08:25:38;30.40;43.30
25438;DHT22;13364;49.084;9.978;2023-07-09T08:28:05;30.60;42.40
25438;DHT22;13364;49.084;9.978;2023-07-09T08:30:33;30.70;42.20
25438;DHT22;13364;49.084;9.978;2023-07-09T08:33:01;30.90;41.30
25438;DHT22;13364;49.084;9.978;2023-07-09T08:35:28;31.00;39.70
25438;DHT22;13364;49.084;9.978;2023-07-09T08:38:02;31.00;39.90
25438;DHT22;13364;49.084;9.978;2023-07-09T08:40:29;31.10;39.00
25438;DHT22;13364;49.084;9.978;2023-07-09T08:43:06;31.10;39.20
25438;DHT22;13364;49.084;9.978;2023-07-09T08:45:53;31.30;39.00
25438;DHT22;13364;49.084;9.978;2023-07-09T08:51:08;31.50;38.80
25438;DHT22;13364;49.084;9.978;2023-07-09T08:53:42;31.70;38.90
25438;DHT22;13364;49.084;9.978;2023-07-09T08:56:13;32.00;38.10
25438;DHT22;13364;49.084;9.978;2023-07-09T08:58:41;32.30;37.30
25438;DHT22;13364;49.084;9.978;2023-07-09T09:01:18;32.50;37.60
25438;DHT22;13364;49.084;9.978;2023-07-09T09:03:47;32.70;37.10
25438;DHT22;13364;49.084;9.978;2023-07-09T09:06:16;32.90;37.30
25438;DHT22;13364;49.084;9.978;2023-07-09T09:08:56;33.20;36.10
25438;DHT22;13364;49.084;9.978;2023-07-09T09:11:39;33.40;35.30
25438;DHT22;13364;49.084;9.978;2023-07-09T09:14:28;33.70;35.00
25438;DHT22;13364;49.084;9.978;2023-07-09T09:16:57;33.90;34.90
25438;DHT22;13364;49.084;9.978;2023-07-09T09:19:29;34.00;33.70
25438;DHT22;13364;49.084;9.978;2023-07-09T09:22:04;34.00;33.60
25438;DHT22;13364;49.084;9.978;2023-07-09T09:25:02;34.10;32.30
25438;DHT22;13364;49.084;9.978;2023-07-09T09:27:24;34.10;33.70
25438;DHT22;13364;49.084;9.978;2023-07-09T09:29:51;34.10;32.60
25438;DHT22;13364;49.084;9.978;2023-07-09T09:32:47;34.00;32.80
25438;DHT22;13364;49.084;9.978;2023-07-09T09:35:17;34.00;32.90
25438;DHT22;13364;49.084;9.978;2023-07-09T09:37:51;34.00;33.30
25438;DHT22;13364;49.084;9.978;2023-07-09T09:40:20;33.90;32.50
25438;DHT22;13364;49.084;9.978;2023-07-09T09:42:51;33.80;32.80
25438;DHT22;13364;49.084;9.978;2023-07-09T09:45:25;33.80;33.20
25438;DHT22;13364;49.084;9.978;2023-07-09T09:47:59;34.10;33.80
25438;DHT22;13364;49.084;9.978;2023-07-09T09:50:45;34.40;32.40
25438;DHT22;13364;49.084;9.978;2023-07-09T09:53:22;34.70;32.70
25438;DHT22;13364;49.084;9.978;2023-07-09T09:55:52;35.00;32.40
25438;DHT22;13364;49.084;9.978;2023-07-09T09:58:25;35.30;31.50
25438;DHT22;13364;49.084;9.978;2023-07-09T10:00:56;35.60;30.30
25438;DHT22;13364;49.084;9.978;2023-07-09T10:03:32;35.70;30.90
25438;DHT22;13364;49.084;9.978;2023-07-09T10:06:06;35.90;31.40
25438;DHT22;13364;49.084;9.978;2023-07-09T10:11:15;36.30;29.20
25438;DHT22;13364;49.084;9.978;2023-07-09T10:13:45;36.30;29.60
25438;DHT22;13364;49.084;9.978;2023-07-09T10:19:25;36.20;29.80
25438;DHT22;13364;49.084;9.978;2023-07-09T10:22:10;36.30;30.20
25438;DHT22;13364;49.084;9.978;2023-07-09T10:25:33;36.50;29.80
25438;DHT22;13364;49.084;9.978;2023-07-09T10:33:51;36.70;29.40
25438;DHT22;13364;49.084;9.978;2023-07-09T10:39:22;36.90;29.20
25438;DHT22;13364;49.084;9.978;2023-07-09T10:41:51;37.10;28.30
25438;DHT22;13364;49.084;9.978;2023-07-09T10:44:25;37.20;28.30
25438;DHT22;13364;49.084;9.978;2023-07-09T10:46:58;37.30;28.30
25438;DHT22;13364;49.084;9.978;2023-07-09T10:49:33;37.30;28.70
25438;DHT22;13364;49.084;9.978;2023-07-09T10:52:27;37.30;28.20
25438;DHT22;13364;49.084;9.978;2023-07-09T10:55:22;37.30;28.30
25438;DHT22;13364;49.084;9.978;2023-07-09T10:58:00;37.10;28.00
25438;DHT22;13364;49.084;9.978;2023-07-09T11:03:55;37.00;28.50
25438;DHT22;13364;49.084;9.978;2023-07-09T11:08:59;37.20;27.30
25438;DHT22;13364;49.084;9.978;2023-07-09T11:11:32;37.20;27.70
25438;DHT22;13364;49.084;9.978;2023-07-09T11:14:04;37.10;28.00
25438;DHT22;13364;49.084;9.978;2023-07-09T11:16:40;36.90;29.40
25438;DHT22;13364;49.084;9.978;2023-07-09T11:19:18;36.70;28.10
25438;DHT22;13364;49.084;9.978;2023-07-09T11:21:58;36.40;28.80
25438;DHT22;13364;49.084;9.978;2023-07-09T11:27:25;36.30;28.70
25438;DHT22;13364;49.084;9.978;2023-07-09T11:32:26;36.10;28.70
25438;DHT22;13364;49.084;9.978;2023-07-09T11:34:54;36.00;29.50
25438;DHT22;13364;49.084;9.978;2023-07-09T11:37:25;36.00;29.70
25438;DHT22;13364;49.084;9.978;2023-07-09T11:39:52;36.00;29.80
25438;DHT22;13364;49.084;9.978;2023-07-09T11:42:32;36.10;30.20
25438;DHT22;13364;49.084;9.978;2023-07-09T11:45:14;36.20;29.50
25438;DHT22;13364;49.084;9.978;2023-07-09T11:47:45;36.40;29.10
25438;DHT22;13364;49.084;9.978;2023-07-09T11:56:20;37.10;28.20
25438;DHT22;13364;49.084;9.978;2023-07-09T11:58:54;37.20;27.80
25438;DHT22;13364;49.084;9.978;2023-07-09T12:01:36;37.30;28.80
25438;DHT22;13364;49.084;9.978;2023-07-09T12:04:06;37.30;27.80
25438;DHT22;13364;49.084;9.978;2023-07-09T12:06:40;37.20;28.40
25438;DHT22;13364;49.084;9.978;2023-07-09T12:09:13;37.20;28.50
25438;DHT22;13364;49.084;9.978;2023-07-09T12:11:45;37.20;28.00
25438;DHT22;13364;49.084;9.978;2023-07-09T12:14:18;37.30;27.80
25438;DHT22;13364;49.084;9.978;2023-07-09T12:16:47;37.30;28.00
25438;DHT22;13364;49.084;9.978;2023-07-09T12:19:18;37.40;28.10
25438;DHT22;13364;49.084;9.978;2023-07-09T12:21:51;37.60;27.40
25438;DHT22;13364;49.084;9.978;2023-07-09T12:24:23;37.70;27.00
25438;DHT22;13364;49.084;9.978;2023-07-09T12:27:00;37.70;26.80
25438;DHT22;13364;49.084;9.978;2023-07-09T12:29:35;37.80;27.20
25438;DHT22;13364;49.084;9.978;2023-07-09T12:32:10;37.90;26.70
25438;DHT22;13364;49.084;9.978;2023-07-09T12:34:38;38.00;26.80
25438;DHT22;13364;49.084;9.978;2023-07-09T12:37:05;38.10;26.90
25438;DHT22;13364;49.084;9.978;2023-07-09T12:39:33;38.20;25.80
25438;DHT22;13364;49.084;9.978;2023-07-09T12:42:01;38.20;26.40
25438;DHT22;13364;49.084;9.978;2023-07-09T12:47:39;38.20;25.00
25438;DHT22;13364;49.084;9.978;2023-07-09T12:50:30;38.10;26.90
25438;DHT22;13364;49.084;9.978;2023-07-09T12:53:14;38.30;26.40
25438;DHT22;13364;49.084;9.978;2023-07-09T12:55:45;38.50;25.70
25438;DHT22;13364;49.084;9.978;2023-07-09T12:58:21;38.70;25.30
25438;DHT22;13364;49.084;9.978;2023-07-09T13:00:50;38.90;25.20
25438;DHT22;13364;49.084;9.978;2023-07-09T13:03:28;39.00;24.80
25438;DHT22;13364;49.084;9.978;2023-07-09T13:06:02;39.10;25.20
25438;DHT22;13364;49.084;9.978;2023-07-09T13:08:41;39.40;25.00
25438;DHT22;13364;49.084;9.978;2023-07-09T13:11:16;39.60;24.50
25438;DHT22;13364;49.084;9.978;2023-07-09T13:13:57;39.70;24.80
25438;DHT22;13364;49.084;9.978;2023-07-09T13:16:25;39.80;19.60
25438;DHT22;13364;49.084;9.978;2023-07-09T13:18:52;39.80;19.30
25438;DHT22;13364;49.084;9.978;2023-07-09T13:21:22;39.70;19.90
25438;DHT22;13364;49.084;9.978;2023-07-09T13:23:49;39.70;19.20
25438;DHT22;13364;49.084;9.978;2023-07-09T13:26:17;39.80;19.60
25438;DHT22;13364;49.084;9.978;2023-07-09T13:28:44;39.80;24.00
25438;DHT22;13364;49.084;9.978;2023-07-09T13:31:15;39.80;19.40
25438;DHT22;13364;49.084;9.978;2023-07-09T13:33:44;39.90;24.00
25438;DHT22;13364;49.084;9.978;2023-07-09T13:36:12;40.00;19.50
25438;DHT22;13364;49.084;9.978;2023-07-09T13:38:39;39.90;18.90
25438;DHT22;13364;49.084;9.978;2023-07-09T13:41:16;39.80;19.40
25438;DHT22;13364;49.084;9.978;2023-07-09T13:43:46;39.60;24.10
25438;DHT22;13364;49.084;9.978;2023-07-09T13:46:14;39.40;24.40
25438;DHT22;13364;49.084;9.978;2023-07-09T13:48:43;39.30;24.70
25438;DHT22;13364;49.084;9.978;2023-07-09T13:51:30;39.10;24.60
25438;DHT22;13364;49.084;9.978;2023-07-09T13:54:26;38.90;24.10
25438;DHT22;13364;49.084;9.978;2023-07-09T13:56:54;38.60;24.60
25438;DHT22;13364;49.084;9.978;2023-07-09T13:59:23;38.40;25.10
25438;DHT22;13364;49.084;9.978;2023-07-09T14:01:53;38.20;25.60
25438;DHT22;13364;49.084;9.978;2023-07-09T14:04:23;38.10;24.90
25438;DHT22;13364;49.084;9.978;2023-07-09T14:06:51;38.00;25.30
25438;DHT22;13364;49.084;9.978;2023-07-09T14:09:18;38.00;25.10
25438;DHT22;13364;49.084;9.978;2023-07-09T14:11:51;38.10;25.00
25438;DHT22;13364;49.084;9.978;2023-07-09T14:14:22;38.10;25.20
25438;DHT22;13364;49.084;9.978;2023-07-09T14:16:51;38.20;25.10
25438;DHT22;13364;49.084;9.978;2023-07-09T14:19:21;38.30;25.30
25438;DHT22;13364;49.084;9.978;2023-07-09T14:21:51;38.40;25.60
25438;DHT22;13364;49.084;9.978;2023-07-09T14:24:26;38.60;25.00
25438;DHT22;13364;49.084;9.978;2023-07-09T14:26:56;38.80;25.10
25438;DHT22;13364;49.084;9.978;2023-07-09T14:29:24;39.00;25.30
25438;DHT22;13364;49.084;9.978;2023-07-09T14:31:53;39.10;25.00
25438;DHT22;13364;49.084;9.978;2023-07-09T14:34:27;39.00;24.90
25438;DHT22;13364;49.084;9.978;2023-07-09T14:36:57;38.90;24.20
25438;DHT22;13364;49.084;9.978;2023-07-09T14:39:26;38.80;24.70
25438;DHT22;13364;49.084;9.978;2023-07-09T14:41:54;38.70;25.30
25438;DHT22;13364;49.084;9.978;2023-07-09T14:44:30;38.60;25.20
25438;DHT22;13364;49.084;9.978;2023-07-09T14:46:59;38.40;25.10
25438;DHT22;13364;49.084;9.978;2023-07-09T14:49:27;38.20;25.20
25438;DHT22;13364;49.084;9.978;2023-07-09T14:51:55;38.00;25.00
25438;DHT22;13364;49.084;9.978;2023-07-09T14:54:30;37.70;25.20
25438;DHT22;13364;49.084;9.978;2023-07-09T14:56:58;37.60;25.80
25438;DHT22;13364;49.084;9.978;2023-07-09T14:59:25;37.30;25.60
25438;DHT22;13364;49.084;9.978;2023-07-09T15:01:53;37.10;26.40
25438;DHT22;13364;49.084;9.978;2023-07-09T15:06:53;36.80;26.90
25438;DHT22;13364;49.084;9.978;2023-07-09T15:09:47;36.70;26.70
25438;DHT22;13364;49.084;9.978;2023-07-09T15:12:22;36.60;27.00
25438;DHT22;13364;49.084;9.978;2023-07-09T15:14:52;36.50;27.50
25438;DHT22;13364;49.084;9.978;2023-07-09T15:17:20;36.50;27.10
25438;DHT22;13364;49.084;9.978;2023-07-09T15:19:47;36.50;27.30
25438;DHT22;13364;49.084;9.978;2023-07-09T15:22:31;36.50;27.50
25438;DHT22;13364;49.084;9.978;2023-07-09T15:25:00;36.60;27.00
25438;DHT22;13364;49.084;9.978;2023-07-09T15:27:27;36.60;27.20
25438;DHT22;13364;49.084;9.978;2023-07-09T15:29:54;36.70;27.30
25438;DHT22;13364;49.084;9.978;2023-07-09T15:32:21;36.80;27.00
25438;DHT22;13364;49.084;9.978;2023-07-09T15:34:48;36.80;26.80
25438;DHT22;13364;49.084;9.978;2023-07-09T15:37:16;36.70;26.90
25438;DHT22;13364;49.084;9.978;2023-07-09T15:39:44;36.70;27.20
25438;DHT22;13364;49.084;9.978;2023-07-09T15:42:14;36.70;26.60
25438;DHT22;13364;49.084;9.978;2023-07-09T15:44:41;36.60;27.10
25438;DHT22;13364;49.084;9.978;2023-07-09T15:47:17;36.60;27.60
25438;DHT22;13364;49.084;9.978;2023-07-09T15:49:45;36.60;27.20
25438;DHT22;13364;49.084;9.978;2023-07-09T15:52:12;36.50;27.20
25438;DHT22;13364;49.084;9.978;2023-07-09T15:54:42;36.40;27.20
25438;DHT22;13364;49.084;9.978;2023-07-09T15:57:15;36.30;27.70
25438;DHT22;13364;49.084;9.978;2023-07-09T16:02:43;36.10;28.10
25438;DHT22;13364;49.084;9.978;2023-07-09T16:05:29;36.10;27.90
25438;DHT22;13364;49.084;9.978;2023-07-09T16:07:59;36.10;27.80
25438;DHT22;13364;49.084;9.978;2023-07-09T16:10:30;36.10;27.90
25438;DHT22;13364;49.084;9.978;2023-07-09T16:12:58;36.10;29.30
25438;DHT22;13364;49.084;9.978;2023-07-09T16:15:25;36.20;29.10
25438;DHT22;13364;49.084;9.978;2023-07-09T16:17:54;36.30;29.20
25438;DHT22;13364;49.084;9.978;2023-07-09T16:20:24;36.40;28.10
25438;DHT22;13364;49.084;9.978;2023-07-09T16:22:57;36.40;28.20
25438;DHT22;13364;49.084;9.978;2023-07-09T16:25:34;36.40;27.60
25438;DHT22;13364;49.084;9.978;2023-07-09T16:28:37;36.40;27.60
25438;DHT22;13364;49.084;9.978;2023-07-09T16:31:04;36.40;28.10
25438;DHT22;13364;49.084;9.978;2023-07-09T16:33:31;36.40;28.10
25438;DHT22;13364;49.084;9.978;2023-07-09T16:35:58;36.40;28.20
25438;DHT22;13364;49.084;9.978;2023-07-09T16:38:32;36.40;27.20